createdAt,value
2019-02-23T00:00:48.027Z,0.40
2019-02-23T00:01:49.241Z,0.57
2019-02-23T00:02:50.475Z,0.30
2019-02-23T00:03:51.593Z,0.37
2019-02-23T00:04:52.715Z,0.30
2019-02-23T00:05:53.839Z,0.30
2019-02-23T00:06:54.954Z,0.30
2019-02-23T00:07:56.108Z,0.25
2019-02-23T00:08:57.232Z,0.40
2019-02-23T00:09:58.352Z,0.33
2019-02-23T00:10:59.469Z,0.40
2019-02-23T00:12:00.588Z,0.20
2019-02-23T00:13:01.930Z,0.40
2019-02-23T00:14:03.112Z,0.30
2019-02-23T00:15:06.025Z,0.50
2019-02-23T00:16:07.238Z,0.30
2019-02-23T00:17:08.359Z,0.28
2019-02-23T00:18:09.519Z,0.40
2019-02-23T00:19:10.623Z,0.30
2019-02-23T00:20:11.832Z,0.30
2019-02-23T00:21:12.952Z,0.40
2019-02-23T00:22:14.066Z,0.33
2019-02-23T00:23:15.226Z,0.37
2019-02-23T00:24:16.340Z,0.20
2019-02-23T00:25:17.457Z,0.30
2019-02-23T00:26:18.679Z,0.40
2019-02-23T00:27:19.793Z,0.17
2019-02-23T00:28:20.928Z,0.45
2019-02-23T00:29:22.149Z,0.30
2019-02-23T00:30:23.268Z,0.40
2019-02-23T00:31:24.404Z,0.40
2019-02-23T00:32:25.512Z,0.30
2019-02-23T00:33:26.656Z,0.40
2019-02-23T00:34:27.819Z,0.30
2019-02-23T00:35:28.892Z,0.30
2019-02-23T00:36:30.120Z,0.20
2019-02-23T00:37:31.238Z,0.30
2019-02-23T00:38:32.474Z,0.30
2019-02-23T00:39:33.710Z,0.30
2019-02-23T00:40:34.928Z,0.30
2019-02-23T00:41:36.047Z,0.20
2019-02-23T00:42:37.162Z,0.30
2019-02-23T00:43:38.282Z,0.42
2019-02-23T00:44:39.409Z,0.30
2019-02-23T00:45:40.554Z,0.40
2019-02-23T00:46:41.676Z,0.20
2019-02-23T00:47:43.325Z,0.30
2019-02-23T00:48:44.450Z,0.30
2019-02-23T00:49:45.600Z,0.30
2019-02-23T00:50:46.726Z,0.30
2019-02-23T00:51:47.964Z,0.25
2019-02-23T00:52:49.084Z,0.33
2019-02-23T00:53:50.204Z,0.20
2019-02-23T00:54:51.357Z,0.13
2019-02-23T00:55:52.580Z,0.30
2019-02-23T00:56:53.698Z,0.30
2019-02-23T00:57:54.823Z,0.30
2019-02-23T00:58:56.045Z,0.30
2019-02-23T00:59:57.290Z,0.40
2019-02-23T01:00:58.509Z,0.20
2019-02-23T01:01:59.645Z,0.40
2019-02-23T01:03:00.873Z,0.30
2019-02-23T01:04:02.128Z,0.30
2019-02-23T01:05:03.852Z,0.50
2019-02-23T01:06:04.968Z,0.30
2019-02-23T01:07:06.084Z,0.20
2019-02-23T01:08:07.308Z,0.30
2019-02-23T01:09:08.531Z,0.40
2019-02-23T01:10:09.780Z,0.33
2019-02-23T01:11:11.017Z,0.33
2019-02-23T01:12:12.136Z,0.30
2019-02-23T01:13:13.260Z,0.30
2019-02-23T01:14:14.373Z,0.30
2019-02-23T01:15:15.550Z,0.30
2019-02-23T01:16:16.656Z,0.20
2019-02-23T01:17:17.868Z,0.25
2019-02-23T01:18:19.109Z,0.30
2019-02-23T01:19:20.822Z,0.30
2019-02-23T01:20:22.079Z,0.30
2019-02-23T01:21:23.195Z,0.20
2019-02-23T01:22:24.309Z,0.50
2019-02-23T01:23:25.427Z,0.30
2019-02-23T01:24:26.542Z,0.30
2019-02-23T01:25:27.861Z,0.40
2019-02-23T01:26:28.978Z,0.28
2019-02-23T01:27:30.088Z,0.33
2019-02-23T01:28:31.202Z,0.23
2019-02-23T01:29:32.324Z,0.30
2019-02-23T01:30:33.475Z,0.30
2019-02-23T01:31:34.696Z,0.30
2019-02-23T01:32:35.917Z,0.25
2019-02-23T01:33:37.071Z,0.30
2019-02-23T01:34:38.188Z,0.30
2019-02-23T01:35:39.422Z,0.50
2019-02-23T01:36:40.537Z,0.20
2019-02-23T01:37:41.652Z,0.40
2019-02-23T01:38:42.766Z,0.40
2019-02-23T01:39:44.085Z,0.33
2019-02-23T01:40:45.586Z,0.40
2019-02-23T01:41:46.699Z,0.40
2019-02-23T01:42:47.817Z,0.30
2019-02-23T01:43:48.935Z,0.40
2019-02-23T01:44:50.162Z,0.50
2019-02-23T01:45:51.296Z,0.40
2019-02-23T01:46:52.514Z,0.30
2019-02-23T01:47:53.621Z,0.20
2019-02-23T01:48:54.748Z,0.40
2019-02-23T01:49:58.792Z,0.30
2019-02-23T01:50:59.176Z,0.40
2019-02-23T01:52:00.401Z,0.30
2019-02-23T01:53:01.612Z,0.40
2019-02-23T01:54:02.835Z,0.20
2019-02-23T01:55:05.347Z,0.30
2019-02-23T01:56:06.770Z,0.30
2019-02-23T01:57:07.888Z,0.20
2019-02-23T01:58:09.105Z,0.30
2019-02-23T01:59:10.222Z,0.30
2019-02-23T02:00:12.537Z,0.30
2019-02-23T02:01:13.664Z,0.25
2019-02-23T02:02:14.786Z,0.30
2019-02-23T02:03:16.103Z,0.40
2019-02-23T02:04:17.328Z,0.30
2019-02-23T02:05:18.449Z,0.40
2019-02-23T02:06:19.680Z,0.40
2019-02-23T02:07:20.794Z,0.33
2019-02-23T02:08:21.914Z,0.50
2019-02-23T02:09:23.329Z,0.20
2019-02-23T02:10:24.646Z,0.50
2019-02-23T02:11:25.833Z,0.40
2019-02-23T02:12:26.954Z,0.33
2019-02-23T02:13:28.179Z,0.50
2019-02-23T02:14:29.292Z,0.30
2019-02-23T02:15:30.604Z,0.40
2019-02-23T02:16:31.881Z,0.30
2019-02-23T02:17:32.954Z,0.30
2019-02-23T02:18:34.071Z,0.30
2019-02-23T02:19:35.183Z,0.30
2019-02-23T02:20:36.303Z,0.30
2019-02-23T02:21:37.432Z,0.35
2019-02-23T02:22:38.549Z,0.20
2019-02-23T02:23:39.670Z,0.20
2019-02-23T02:24:40.784Z,0.30
2019-02-23T02:25:41.897Z,0.35
2019-02-23T02:26:43.152Z,0.35
2019-02-23T02:27:44.391Z,0.35
2019-02-23T02:28:45.524Z,0.30
2019-02-23T02:29:46.655Z,0.28
2019-02-23T02:30:47.763Z,0.40
2019-02-23T02:31:48.891Z,0.30
2019-02-23T02:32:50.009Z,0.20
2019-02-23T02:34:04.012Z,0.30
2019-02-23T02:35:07.229Z,0.30
2019-02-23T02:36:08.364Z,0.30
2019-02-23T02:37:09.644Z,0.30
2019-02-23T02:38:10.760Z,0.20
2019-02-23T02:39:12.682Z,0.30
2019-02-23T02:40:13.783Z,0.10
2019-02-23T02:41:14.898Z,0.20
2019-02-23T02:42:16.028Z,0.20
2019-02-23T02:43:17.144Z,0.25
2019-02-23T02:44:18.263Z,0.30
2019-02-23T02:45:19.480Z,0.25
2019-02-23T02:46:20.728Z,0.25
2019-02-23T02:47:21.965Z,0.28
2019-02-23T02:48:23.081Z,0.20
2019-02-23T02:49:24.193Z,0.40
2019-02-23T02:50:25.304Z,0.20
2019-02-23T02:51:26.421Z,0.30
2019-02-23T02:52:27.561Z,0.30
2019-02-23T02:53:28.676Z,0.10
2019-02-23T02:54:29.790Z,0.25
2019-02-23T02:55:31.013Z,0.30
2019-02-23T02:56:32.147Z,0.30
2019-02-23T02:57:33.264Z,0.30
2019-02-23T02:58:34.380Z,0.30
2019-02-23T02:59:35.595Z,0.25
2019-02-23T03:00:36.711Z,0.30
2019-02-23T03:01:37.828Z,0.20
2019-02-23T03:02:38.960Z,0.20
2019-02-23T03:03:40.075Z,0.13
2019-02-23T03:04:41.191Z,0.20
2019-02-23T03:05:42.316Z,0.30
2019-02-23T03:06:43.430Z,0.20
2019-02-23T03:07:44.565Z,0.10
2019-02-23T03:08:45.685Z,0.23
2019-02-23T03:09:46.801Z,0.20
2019-02-23T03:10:47.922Z,0.10
2019-02-23T03:11:49.038Z,0.37
2019-02-23T03:12:50.561Z,0.20
2019-02-23T03:13:51.776Z,0.20
2019-02-23T03:14:53.073Z,0.20
2019-02-23T03:15:54.199Z,0.20
2019-02-23T03:16:55.418Z,0.20
2019-02-23T03:17:56.575Z,0.23
2019-02-23T03:18:57.688Z,0.20
2019-02-23T03:19:59.106Z,0.30
2019-02-23T03:21:00.225Z,0.37
2019-02-23T03:22:01.364Z,0.20
2019-02-23T03:23:05.533Z,0.10
2019-02-23T03:24:06.644Z,0.20
2019-02-23T03:25:07.753Z,0.10
2019-02-23T03:26:08.865Z,0.28
2019-02-23T03:27:09.981Z,0.20
2019-02-23T03:28:11.112Z,0.10
2019-02-23T03:29:12.333Z,0.20
2019-02-23T03:30:13.459Z,0.20
2019-02-23T03:31:14.690Z,0.20
2019-02-23T03:32:15.807Z,0.30
2019-02-23T03:33:16.963Z,0.10
2019-02-23T03:34:18.066Z,0.03
2019-02-23T03:35:19.181Z,0.28
2019-02-23T03:36:20.292Z,0.20
2019-02-23T03:37:21.403Z,0.30
2019-02-23T03:38:22.540Z,0.13
2019-02-23T03:39:23.657Z,0.20
2019-02-23T03:40:24.938Z,0.30
2019-02-23T03:41:26.085Z,0.30
2019-02-23T03:42:27.209Z,0.20
2019-02-23T03:43:28.364Z,0.20
2019-02-23T03:44:29.500Z,0.20
2019-02-23T03:45:30.598Z,0.10
2019-02-23T03:46:31.741Z,0.20
2019-02-23T03:47:32.856Z,0.20
2019-02-23T03:48:34.012Z,0.17
2019-02-23T03:49:35.132Z,0.20
2019-02-23T03:50:48.369Z,0.17
2019-02-23T03:51:39.381Z,0.20
2019-02-23T03:52:40.507Z,0.20
2019-02-23T03:53:41.807Z,0.30
2019-02-23T03:54:42.915Z,0.20
2019-02-23T03:55:44.030Z,0.30
2019-02-23T03:56:45.254Z,0.25
2019-02-23T03:57:46.365Z,0.30
2019-02-23T03:58:47.512Z,0.10
2019-02-23T03:59:48.630Z,0.30
2019-02-23T04:00:49.751Z,0.30
2019-02-23T04:01:50.874Z,0.10
2019-02-23T04:02:52.093Z,0.10
2019-02-23T04:03:53.245Z,0.10
2019-02-23T04:04:54.664Z,0.23
2019-02-23T04:05:55.786Z,0.10
2019-02-23T04:06:56.897Z,0.10
2019-02-23T04:07:58.019Z,0.20
2019-02-23T04:08:59.149Z,0.20
2019-02-23T04:10:00.430Z,0.10
2019-02-23T04:11:01.792Z,0.20
2019-02-23T04:12:02.895Z,0.20
2019-02-23T04:13:04.013Z,0.10
2019-02-23T04:14:05.164Z,0.20
2019-02-23T04:15:06.483Z,0.10
2019-02-23T04:16:07.702Z,0.20
2019-02-23T04:17:08.814Z,0.20
2019-02-23T04:18:09.939Z,0.17
2019-02-23T04:19:11.062Z,0.10
2019-02-23T04:20:12.281Z,0.10
2019-02-23T04:21:13.397Z,0.23
2019-02-23T04:22:14.520Z,0.30
2019-02-23T04:23:15.638Z,0.10
2019-02-23T04:24:16.783Z,0.20
2019-02-23T04:25:17.895Z,0.20
2019-02-23T04:26:19.008Z,0.23
2019-02-23T04:27:20.128Z,0.17
2019-02-23T04:28:21.353Z,0.10
2019-02-23T04:29:22.479Z,0.20
2019-02-23T04:30:23.590Z,0.20
2019-02-23T04:31:24.810Z,0.20
2019-02-23T04:32:25.931Z,0.20
2019-02-23T04:33:27.147Z,0.10
2019-02-23T04:34:28.408Z,0.10
2019-02-23T04:35:29.622Z,0.20
2019-02-23T04:36:30.738Z,0.20
2019-02-23T04:37:31.853Z,0.20
2019-02-23T04:38:33.075Z,0.30
2019-02-23T04:39:34.223Z,0.20
2019-02-23T04:40:35.333Z,0.30
2019-02-23T04:41:36.673Z,0.20
2019-02-23T04:42:37.841Z,0.25
2019-02-23T04:43:38.994Z,0.30
2019-02-23T04:44:40.228Z,0.20
2019-02-23T04:45:41.447Z,0.30
2019-02-23T04:46:42.677Z,0.10
2019-02-23T04:47:43.936Z,0.30
2019-02-23T04:48:45.055Z,0.20
2019-02-23T04:49:51.900Z,0.20
2019-02-23T04:50:53.021Z,0.30
2019-02-23T04:51:54.141Z,0.20
2019-02-23T04:52:55.262Z,0.20
2019-02-23T04:53:56.375Z,0.30
2019-02-23T04:54:57.665Z,0.10
2019-02-23T04:56:01.132Z,0.20
2019-02-23T04:57:02.240Z,0.30
2019-02-23T04:58:03.352Z,0.30
2019-02-23T04:59:04.567Z,0.15
2019-02-23T05:00:09.317Z,0.30
2019-02-23T05:01:10.573Z,0.30
2019-02-23T05:02:11.716Z,0.20
2019-02-23T05:03:12.840Z,0.10
2019-02-23T05:04:13.982Z,0.20
2019-02-23T05:05:15.089Z,0.40
2019-02-23T05:06:16.306Z,0.30
2019-02-23T05:07:17.416Z,0.20
2019-02-23T05:08:18.533Z,0.20
2019-02-23T05:09:19.653Z,0.40
2019-02-23T05:10:20.781Z,0.20
2019-02-23T05:11:21.892Z,0.20
2019-02-23T05:12:23.009Z,0.17
2019-02-23T05:13:24.139Z,0.40
2019-02-23T05:14:25.254Z,0.20
2019-02-23T05:15:26.480Z,0.20
2019-02-23T05:16:27.605Z,0.20
2019-02-23T05:17:28.717Z,0.20
2019-02-23T05:18:29.870Z,0.10
2019-02-23T05:19:30.983Z,0.20
2019-02-23T05:20:32.272Z,0.30
2019-02-23T05:21:33.380Z,0.30
2019-02-23T05:22:34.502Z,0.20
2019-02-23T05:23:35.610Z,0.20
2019-02-23T05:24:36.730Z,0.20
2019-02-23T05:25:37.902Z,0.20
2019-02-23T05:26:39.274Z,0.20
2019-02-23T05:27:40.408Z,0.30
2019-02-23T05:28:41.973Z,0.20
2019-02-23T05:29:43.099Z,0.30
2019-02-23T05:30:44.224Z,0.20
2019-02-23T05:31:45.437Z,0.30
2019-02-23T05:32:46.553Z,0.30
2019-02-23T05:33:47.686Z,0.30
2019-02-23T05:34:48.810Z,0.10
2019-02-23T05:35:49.941Z,0.20
2019-02-23T05:36:51.076Z,0.20
2019-02-23T05:37:52.172Z,0.30
2019-02-23T05:38:53.291Z,0.30
2019-02-23T05:39:54.509Z,0.25
2019-02-23T05:40:55.644Z,0.30
2019-02-23T05:41:56.753Z,0.20
2019-02-23T05:43:01.154Z,0.20
2019-02-23T05:44:00.890Z,0.30
2019-02-23T05:45:02.320Z,0.20
2019-02-23T05:46:03.491Z,0.23
2019-02-23T05:47:04.745Z,0.47
2019-02-23T05:48:05.887Z,0.35
2019-02-23T05:49:06.997Z,0.30
2019-02-23T05:50:08.511Z,0.30
2019-02-23T05:51:09.667Z,0.20
2019-02-23T05:52:10.784Z,0.30
2019-02-23T05:53:11.910Z,0.10
2019-02-23T05:54:13.024Z,0.30
2019-02-23T05:55:14.145Z,0.30
2019-02-23T05:56:16.302Z,0.10
2019-02-23T05:57:17.720Z,0.30
2019-02-23T05:58:18.965Z,0.20
2019-02-23T05:59:20.046Z,0.30
2019-02-23T06:00:21.173Z,0.53
2019-02-23T06:01:22.331Z,0.40
2019-02-23T06:02:23.459Z,0.30
2019-02-23T06:03:24.587Z,0.30
2019-02-23T06:04:25.709Z,0.30
2019-02-23T06:05:26.968Z,0.30
2019-02-23T06:06:28.161Z,0.40
2019-02-23T06:07:29.280Z,0.30
2019-02-23T06:08:30.403Z,0.33
2019-02-23T06:09:31.519Z,0.45
2019-02-23T06:10:32.744Z,0.40
2019-02-23T06:11:33.892Z,0.40
2019-02-23T06:12:35.116Z,0.40
2019-02-23T06:13:36.234Z,0.40
2019-02-23T06:14:37.389Z,0.40
2019-02-23T06:15:38.712Z,0.37
2019-02-23T06:16:39.845Z,0.30
2019-02-23T06:17:41.066Z,0.40
2019-02-23T06:18:42.179Z,0.53
2019-02-23T06:19:43.304Z,0.40
2019-02-23T06:20:44.422Z,0.10
2019-02-23T06:21:53.598Z,0.20
2019-02-23T06:22:48.589Z,0.35
2019-02-23T06:23:49.711Z,0.40
2019-02-23T06:24:50.823Z,0.30
2019-02-23T06:25:51.944Z,0.30
2019-02-23T06:26:53.072Z,0.40
2019-02-23T06:27:54.189Z,0.33
2019-02-23T06:28:55.400Z,0.37
2019-02-23T06:29:56.517Z,0.45
2019-02-23T06:30:57.634Z,0.30
2019-02-23T06:31:58.869Z,0.40
2019-02-23T06:32:59.987Z,0.37
2019-02-23T06:34:01.100Z,0.45
2019-02-23T06:35:02.321Z,0.35
2019-02-23T06:36:03.544Z,0.50
2019-02-23T06:37:04.673Z,0.30
2019-02-23T06:38:05.798Z,0.30
2019-02-23T06:39:06.916Z,0.40
2019-02-23T06:40:09.331Z,0.30
2019-02-23T06:41:10.511Z,0.35
2019-02-23T06:42:11.642Z,0.50
2019-02-23T06:43:12.762Z,0.40
2019-02-23T06:44:13.873Z,0.37
2019-02-23T06:45:15.006Z,0.60
2019-02-23T06:46:16.137Z,0.40
2019-02-23T06:47:17.296Z,0.50
2019-02-23T06:48:19.925Z,0.60
2019-02-23T06:49:21.283Z,0.50
2019-02-23T06:50:22.495Z,0.40
2019-02-23T06:51:23.724Z,0.20
2019-02-23T06:52:24.980Z,0.40
2019-02-23T06:53:26.098Z,0.30
2019-02-23T06:54:27.219Z,0.40
2019-02-23T06:55:28.336Z,0.40
2019-02-23T06:56:29.462Z,0.40
2019-02-23T06:57:30.780Z,0.50
2019-02-23T06:58:31.922Z,0.37
2019-02-23T06:59:33.146Z,0.60
2019-02-23T07:00:34.263Z,0.50
2019-02-23T07:01:35.555Z,0.25
2019-02-23T07:02:36.676Z,0.50
2019-02-23T07:03:37.793Z,0.40
2019-02-23T07:04:38.914Z,0.50
2019-02-23T07:05:40.013Z,0.30
2019-02-23T07:06:41.131Z,0.40
2019-02-23T07:07:42.284Z,0.33
2019-02-23T07:08:43.504Z,0.30
2019-02-23T07:09:44.617Z,0.50
2019-02-23T07:10:45.731Z,0.60
2019-02-23T07:11:46.844Z,0.50
2019-02-23T07:12:48.001Z,0.50
2019-02-23T07:13:49.197Z,0.60
2019-02-23T07:14:50.312Z,0.50
2019-02-23T07:15:51.434Z,0.40
2019-02-23T07:16:52.651Z,0.70
2019-02-23T07:17:53.777Z,0.60
2019-02-23T07:18:54.892Z,0.68
2019-02-23T07:19:56.009Z,0.68
2019-02-23T07:20:57.122Z,0.55
2019-02-23T07:21:58.253Z,0.60
2019-02-23T07:22:59.378Z,0.70
2019-02-23T07:24:00.493Z,0.60
2019-02-23T07:25:02.003Z,0.90
2019-02-23T07:26:03.115Z,0.60
2019-02-23T07:27:04.227Z,0.78
2019-02-23T07:28:05.355Z,0.70
2019-02-23T07:29:06.477Z,0.43
2019-02-23T07:30:12.735Z,0.50
2019-02-23T07:31:13.859Z,0.53
2019-02-23T07:32:15.244Z,0.70
2019-02-23T07:33:23.696Z,0.70
2019-02-23T07:34:19.420Z,0.60
2019-02-23T07:35:20.640Z,0.50
2019-02-23T07:36:21.762Z,0.53
2019-02-23T07:37:22.881Z,0.78
2019-02-23T07:38:24.009Z,0.55
2019-02-23T07:39:25.126Z,0.55
2019-02-23T07:40:26.244Z,0.50
2019-02-23T07:41:27.463Z,0.70
2019-02-23T07:42:28.580Z,0.50
2019-02-23T07:43:29.719Z,0.40
2019-02-23T07:44:30.833Z,0.50
2019-02-23T07:45:31.951Z,0.53
2019-02-23T07:46:33.062Z,0.40
2019-02-23T07:47:34.183Z,0.50
2019-02-23T07:48:35.448Z,0.50
2019-02-23T07:49:36.684Z,0.60
2019-02-23T07:50:37.799Z,0.60
2019-02-23T07:51:39.017Z,0.70
2019-02-23T07:52:40.150Z,0.70
2019-02-23T07:53:41.292Z,0.60
2019-02-23T07:54:42.514Z,0.50
2019-02-23T07:55:43.639Z,0.60
2019-02-23T07:56:44.760Z,0.72
2019-02-23T07:57:45.873Z,0.88
2019-02-23T07:58:47.032Z,0.55
2019-02-23T07:59:48.149Z,0.70
2019-02-23T08:00:49.261Z,0.70
2019-02-23T08:01:50.381Z,0.65
2019-02-23T08:02:51.501Z,0.80
2019-02-23T08:03:53.205Z,0.80
2019-02-23T08:04:54.340Z,0.80
2019-02-23T08:05:55.453Z,0.78
2019-02-23T08:06:56.577Z,0.90
2019-02-23T08:07:57.689Z,0.75
2019-02-23T08:08:58.937Z,0.80
2019-02-23T08:10:00.103Z,0.60
2019-02-23T08:11:01.485Z,0.70
2019-02-23T08:12:02.589Z,0.70
2019-02-23T08:13:03.813Z,0.57
2019-02-23T08:14:04.968Z,1.20
2019-02-23T08:15:10.118Z,1.00
2019-02-23T08:16:11.241Z,0.80
2019-02-23T08:17:12.367Z,0.80
2019-02-23T08:18:13.483Z,0.68
2019-02-23T08:19:14.609Z,0.70
2019-02-23T08:20:15.724Z,0.88
2019-02-23T08:21:16.841Z,0.65
2019-02-23T08:22:17.954Z,0.70
2019-02-23T08:23:19.072Z,0.62
2019-02-23T08:24:20.208Z,0.75
2019-02-23T08:25:21.437Z,0.90
2019-02-23T08:26:22.553Z,0.53
2019-02-23T08:27:23.665Z,0.82
2019-02-23T08:28:24.785Z,0.68
2019-02-23T08:29:26.226Z,0.70
2019-02-23T08:30:27.340Z,0.70
2019-02-23T08:31:28.465Z,0.95
2019-02-23T08:32:29.584Z,0.60
2019-02-23T08:33:30.821Z,0.60
2019-02-23T08:34:32.327Z,0.68
2019-02-23T08:35:33.440Z,0.78
2019-02-23T08:36:34.557Z,0.80
2019-02-23T08:37:35.671Z,0.50
2019-02-23T08:38:36.888Z,0.47
2019-02-23T08:39:38.052Z,0.70
2019-02-23T08:40:39.169Z,0.90
2019-02-23T08:41:40.391Z,0.68
2019-02-23T08:42:41.623Z,0.80
2019-02-23T08:43:42.746Z,0.70
2019-02-23T08:44:43.904Z,0.75
2019-02-23T08:45:45.128Z,0.60
2019-02-23T08:46:46.244Z,0.68
2019-02-23T08:47:47.375Z,0.78
2019-02-23T08:48:48.602Z,0.85
2019-02-23T08:49:49.772Z,0.60
2019-02-23T08:50:50.890Z,0.80
2019-02-23T08:51:52.010Z,0.68
2019-02-23T08:52:53.133Z,0.55
2019-02-23T08:53:54.244Z,0.72
2019-02-23T08:54:55.488Z,0.50
2019-02-23T08:55:56.600Z,0.60
2019-02-23T08:56:57.724Z,0.60
2019-02-23T08:57:58.843Z,0.70
2019-02-23T08:58:59.961Z,0.80
2019-02-23T09:00:01.104Z,0.50
2019-02-23T09:01:02.282Z,0.57
2019-02-23T09:02:03.424Z,0.70
2019-02-23T09:03:04.608Z,0.50
2019-02-23T09:04:05.751Z,0.50
2019-02-23T09:05:08.473Z,0.68
2019-02-23T09:06:09.588Z,0.70
2019-02-23T09:07:10.700Z,0.75
2019-02-23T09:08:11.820Z,0.70
2019-02-23T09:09:12.943Z,0.90
2019-02-23T09:10:14.568Z,0.62
2019-02-23T09:11:15.678Z,0.60
2019-02-23T09:12:16.789Z,0.80
2019-02-23T09:13:17.904Z,1.02
2019-02-23T09:14:19.028Z,1.10
2019-02-23T09:15:22.125Z,0.80
2019-02-23T09:16:23.280Z,1.00
2019-02-23T09:17:24.394Z,0.75
2019-02-23T09:18:25.618Z,0.80
2019-02-23T09:19:26.849Z,0.60
2019-02-23T09:20:29.456Z,1.00
2019-02-23T09:21:30.912Z,0.95
2019-02-23T09:22:32.032Z,0.60
2019-02-23T09:23:33.145Z,0.65
2019-02-23T09:24:34.260Z,0.80
2019-02-23T09:25:35.492Z,0.60
2019-02-23T09:26:36.606Z,0.80
2019-02-23T09:27:37.724Z,0.70
2019-02-23T09:28:38.841Z,0.80
2019-02-23T09:29:40.066Z,0.80
2019-02-23T09:30:41.188Z,0.95
2019-02-23T09:31:42.308Z,0.70
2019-02-23T09:32:43.433Z,0.68
2019-02-23T09:33:44.552Z,0.80
2019-02-23T09:34:45.768Z,1.00
2019-02-23T09:35:46.924Z,0.80
2019-02-23T09:36:48.630Z,0.60
2019-02-23T09:37:49.737Z,0.80
2019-02-23T09:38:50.852Z,0.62
2019-02-23T09:39:52.077Z,0.65
2019-02-23T09:40:53.314Z,0.80
2019-02-23T09:41:54.429Z,0.90
2019-02-23T09:42:55.546Z,1.00
2019-02-23T09:43:56.768Z,0.78
2019-02-23T09:44:57.892Z,0.85
2019-02-23T09:45:59.046Z,0.80
2019-02-23T09:47:00.169Z,0.80
2019-02-23T09:48:01.390Z,0.78
2019-02-23T09:49:02.547Z,0.60
2019-02-23T09:50:03.958Z,0.80
2019-02-23T09:51:05.089Z,1.00
2019-02-23T09:52:06.212Z,0.90
2019-02-23T09:53:11.164Z,1.00
2019-02-23T09:54:10.368Z,0.50
2019-02-23T09:55:11.480Z,0.90
2019-02-23T09:56:12.641Z,0.65
2019-02-23T09:57:13.759Z,0.60
2019-02-23T09:58:14.873Z,0.80
2019-02-23T09:59:15.993Z,0.70
2019-02-23T10:00:17.126Z,0.90
2019-02-23T10:01:18.283Z,0.70
2019-02-23T10:02:19.395Z,0.90
2019-02-23T10:03:20.509Z,0.65
2019-02-23T10:04:21.624Z,0.93
2019-02-23T10:05:22.742Z,0.90
2019-02-23T10:06:23.875Z,0.70
2019-02-23T10:07:25.095Z,0.70
2019-02-23T10:08:26.209Z,0.72
2019-02-23T10:09:27.327Z,0.60
2019-02-23T10:10:28.441Z,0.50
2019-02-23T10:11:29.572Z,0.62
2019-02-23T10:12:30.784Z,1.02
2019-02-23T10:13:31.907Z,0.70
2019-02-23T10:14:33.028Z,0.80
2019-02-23T10:15:34.146Z,0.55
2019-02-23T10:16:35.281Z,0.70
2019-02-23T10:17:36.514Z,0.53
2019-02-23T10:18:37.634Z,0.68
2019-02-23T10:19:38.746Z,0.68
2019-02-23T10:20:39.864Z,0.78
2019-02-23T10:21:41.224Z,0.55
2019-02-23T10:22:42.340Z,0.88
2019-02-23T10:23:43.467Z,0.70
2019-02-23T10:24:44.577Z,0.75
2019-02-23T10:25:45.697Z,0.93
2019-02-23T10:26:46.943Z,0.75
2019-02-23T10:27:48.053Z,0.72
2019-02-23T10:28:49.174Z,0.90
2019-02-23T10:29:50.292Z,0.60
2019-02-23T10:30:51.411Z,0.60
2019-02-23T10:31:52.544Z,0.60
2019-02-23T10:32:53.668Z,0.57
2019-02-23T10:33:54.788Z,0.75
2019-02-23T10:34:56.008Z,0.82
2019-02-23T10:35:57.131Z,0.70
2019-02-23T10:36:58.360Z,0.60
2019-02-23T10:37:59.482Z,0.70
2019-02-23T10:39:01.194Z,0.85
2019-02-23T10:40:03.297Z,0.75
2019-02-23T10:41:04.415Z,0.62
2019-02-23T10:42:05.645Z,0.57
2019-02-23T10:43:06.765Z,0.60
2019-02-23T10:44:08.001Z,0.75
2019-02-23T10:45:10.214Z,0.65
2019-02-23T10:46:12.241Z,0.93
2019-02-23T10:47:13.581Z,0.88
2019-02-23T10:48:14.692Z,0.70
2019-02-23T10:49:15.820Z,0.72
2019-02-23T10:50:17.060Z,0.88
2019-02-23T10:51:18.171Z,0.70
2019-02-23T10:52:19.415Z,0.50
2019-02-23T10:53:20.545Z,0.57
2019-02-23T10:54:21.666Z,0.60
2019-02-23T10:55:22.781Z,0.85
2019-02-23T10:56:24.096Z,0.78
2019-02-23T10:57:25.232Z,0.80
2019-02-23T10:58:26.351Z,0.47
2019-02-23T10:59:27.572Z,0.88
2019-02-23T11:00:28.885Z,0.82
2019-02-23T11:01:30.002Z,0.80
2019-02-23T11:02:31.137Z,0.75
2019-02-23T11:03:32.242Z,0.93
2019-02-23T11:04:33.411Z,1.20
2019-02-23T11:05:34.541Z,1.17
2019-02-23T11:06:35.662Z,1.20
2019-02-23T11:07:36.910Z,0.90
2019-02-23T11:08:38.130Z,1.07
2019-02-23T11:09:39.600Z,1.02
2019-02-23T11:10:40.704Z,1.10
2019-02-23T11:11:41.919Z,0.90
2019-02-23T11:12:43.094Z,0.95
2019-02-23T11:13:44.308Z,0.85
2019-02-23T11:14:45.437Z,0.70
2019-02-23T11:15:46.535Z,1.15
2019-02-23T11:16:47.744Z,0.80
2019-02-23T11:17:48.876Z,0.75
2019-02-23T11:18:49.988Z,0.90
2019-02-23T11:19:51.302Z,1.23
2019-02-23T11:20:52.411Z,0.70
2019-02-23T11:21:53.673Z,0.75
2019-02-23T11:22:54.853Z,1.17
2019-02-23T11:23:55.974Z,0.90
2019-02-23T11:24:57.091Z,0.88
2019-02-23T11:25:58.202Z,0.88
2019-02-23T11:26:59.412Z,0.90
2019-02-23T11:28:00.743Z,1.17
2019-02-23T11:29:01.952Z,0.72
2019-02-23T11:30:06.364Z,1.07
2019-02-23T11:31:07.579Z,0.95
2019-02-23T11:32:08.683Z,0.75
2019-02-23T11:33:09.810Z,1.00
2019-02-23T11:34:10.925Z,0.90
2019-02-23T11:35:13.936Z,0.82
2019-02-23T11:36:15.058Z,0.68
2019-02-23T11:37:16.169Z,1.12
2019-02-23T11:38:17.323Z,0.85
2019-02-23T11:39:18.541Z,0.90
2019-02-23T11:40:19.656Z,1.17
2019-02-23T11:41:20.776Z,0.70
2019-02-23T11:42:22.068Z,0.78
2019-02-23T11:43:23.230Z,0.80
2019-02-23T11:44:24.347Z,0.80
2019-02-23T11:45:25.462Z,0.82
2019-02-23T11:46:26.680Z,1.00
2019-02-23T11:47:27.796Z,0.85
2019-02-23T11:48:28.935Z,1.02
2019-02-23T11:49:30.169Z,1.07
2019-02-23T11:50:31.298Z,0.97
2019-02-23T11:51:32.409Z,1.02
2019-02-23T11:52:33.524Z,0.70
2019-02-23T11:53:34.696Z,0.70
2019-02-23T11:54:35.820Z,1.02
2019-02-23T11:55:36.928Z,0.90
2019-02-23T11:56:38.158Z,0.90
2019-02-23T11:57:39.268Z,0.80
2019-02-23T11:58:40.401Z,0.78
2019-02-23T11:59:41.515Z,0.90
2019-02-23T12:00:42.728Z,0.90
2019-02-23T12:01:43.843Z,1.00
2019-02-23T12:02:52.154Z,0.80
2019-02-23T12:03:48.000Z,0.90
2019-02-23T12:04:49.117Z,1.07
2019-02-23T12:05:50.236Z,0.78
2019-02-23T12:06:51.358Z,0.98
2019-02-23T12:07:52.468Z,0.90
2019-02-23T12:08:53.597Z,1.00
2019-02-23T12:09:54.713Z,0.98
2019-02-23T12:10:55.937Z,1.00
2019-02-23T12:12:00.010Z,1.27
2019-02-23T12:13:01.115Z,1.00
2019-02-23T12:14:02.240Z,0.80
2019-02-23T12:15:04.558Z,1.00
2019-02-23T12:16:05.683Z,1.10
2019-02-23T12:17:06.937Z,0.80
2019-02-23T12:18:08.044Z,0.95
2019-02-23T12:19:09.177Z,0.93
2019-02-23T12:20:10.286Z,0.90
2019-02-23T12:21:11.400Z,0.90
2019-02-23T12:22:12.803Z,1.05
2019-02-23T12:23:14.041Z,0.98
2019-02-23T12:24:15.200Z,1.00
2019-02-23T12:25:16.519Z,1.30
2019-02-23T12:26:17.742Z,1.02
2019-02-23T12:27:18.862Z,1.02
2019-02-23T12:28:19.981Z,1.10
2019-02-23T12:29:21.120Z,1.17
2019-02-23T12:30:22.232Z,1.10
2019-02-23T12:31:23.350Z,0.85
2019-02-23T12:32:24.464Z,1.00
2019-02-23T12:33:25.576Z,1.00
2019-02-23T12:34:26.710Z,1.10
2019-02-23T12:35:27.823Z,0.82
2019-02-23T12:36:28.945Z,0.90
2019-02-23T12:37:30.173Z,1.00
2019-02-23T12:38:31.286Z,0.90
2019-02-23T12:39:32.445Z,1.15
2019-02-23T12:40:33.569Z,1.07
2019-02-23T12:41:34.695Z,1.02
2019-02-23T12:42:36.130Z,1.10
2019-02-23T12:43:37.240Z,0.80
2019-02-23T12:44:38.393Z,1.25
2019-02-23T12:45:39.506Z,1.00
2019-02-23T12:46:40.627Z,0.82
2019-02-23T12:47:41.745Z,0.80
2019-02-23T12:48:42.865Z,1.37
2019-02-23T12:49:44.009Z,0.82
2019-02-23T12:50:45.134Z,1.10
2019-02-23T12:51:46.254Z,0.90
2019-02-23T12:52:47.512Z,1.02
2019-02-23T12:53:48.633Z,1.07
2019-02-23T12:54:49.783Z,1.02
2019-02-23T12:55:50.895Z,1.00
2019-02-23T12:56:52.003Z,0.93
2019-02-23T12:57:53.125Z,1.10
2019-02-23T12:58:54.240Z,0.78
2019-02-23T12:59:55.392Z,0.70
2019-02-23T13:00:56.513Z,1.05
2019-02-23T13:01:57.629Z,0.90
2019-02-23T13:02:58.849Z,0.80
2019-02-23T13:03:59.960Z,0.70
2019-02-23T13:05:01.299Z,1.00
2019-02-23T13:06:02.412Z,0.80
2019-02-23T13:07:03.520Z,1.00
2019-02-23T13:08:04.635Z,0.88
2019-02-23T13:09:14.169Z,1.20
2019-02-23T13:10:15.326Z,0.90
2019-02-23T13:11:16.454Z,0.85
2019-02-23T13:12:24.182Z,1.27
2019-02-23T13:13:43.948Z,0.90
2019-02-23T13:14:55.094Z,1.02
2019-02-23T13:16:08.903Z,1.07
2019-02-23T13:17:13.716Z,0.85
2019-02-23T13:18:50.502Z,0.90
2019-02-23T13:20:21.472Z,1.30
2019-02-23T13:21:32.132Z,0.82
2019-02-23T13:22:49.043Z,1.30
2019-02-23T13:24:27.811Z,1.17
2019-02-23T13:25:29.281Z,1.00
2019-02-23T13:26:48.856Z,1.00
2019-02-23T13:28:10.390Z,1.00
2019-02-23T13:29:33.544Z,0.93
2019-02-23T13:30:40.956Z,0.93
2019-02-23T13:32:06.864Z,0.88
2019-02-23T13:33:23.852Z,1.10
2019-02-23T13:34:28.564Z,0.98
2019-02-23T13:35:49.866Z,1.00
2019-02-23T13:37:03.784Z,1.30
2019-02-23T13:38:17.478Z,0.80
2019-02-23T13:39:45.047Z,0.80
2019-02-23T13:41:10.917Z,0.98
2019-02-23T13:42:15.651Z,1.10